Time;durP1;ratioP1;P1;durP2;ratioP2;P2;SDS_P1;SDS_P2;PMS_P1;PMS_P2;Temp;Humidity;BMP_temperature;BMP_pressure;BME280_temperature;BME280_humidity;BME280_pressure;Samples;Min_cycle;Max_cycle;Signal;HPM_P1;HPM_P2
2023/08/26 00:00:51;;;;;;;7.30;6.60;;;22.70;99.90;;;;;;10140637;29;20239;-90
2023/08/26 00:05:54;;;;;;;8.60;6.47;;;22.70;99.90;;;;;;10164120;29;20707;-90
2023/08/26 00:10:56;;;;;;;8.70;5.88;;;22.80;99.90;;;;;;10170400;29;20282;-91
2023/08/26 00:15:59;;;;;;;9.73;6.35;;;22.40;99.90;;;;;;10158168;29;20691;-90
2023/08/26 00:21:03;;;;;;;8.77;6.95;;;22.20;99.90;;;;;;10137166;29;20707;-90
2023/08/26 00:26:06;;;;;;;8.63;7.15;;;22.40;99.90;;;;;;10132741;29;20699;-89
2023/08/26 00:31:08;;;;;;;7.07;6.35;;;22.40;99.90;;;;;;10133398;29;20263;-90
2023/08/26 00:36:11;;;;;;;6.40;5.80;;;22.30;99.90;;;;;;10150419;29;20352;-90
2023/08/26 00:41:14;;;;;;;7.10;6.30;;;22.10;99.90;;;;;;10133632;29;20304;-89
2023/08/26 00:46:16;;;;;;;8.75;7.85;;;21.90;99.90;;;;;;10162600;29;20247;-90
2023/08/26 00:51:20;;;;;;;7.95;6.93;;;21.70;99.90;;;;;;10151926;29;20319;-90
2023/08/26 00:56:23;;;;;;;8.75;6.30;;;21.40;99.90;;;;;;10142404;29;20687;-90
2023/08/26 01:01:52;;;;;;;7.35;6.45;;;21.20;99.90;;;;;;10150476;29;20236;-90
2023/08/26 01:06:54;;;;;;;7.93;6.55;;;20.80;99.90;;;;;;10126471;29;20631;-89
2023/08/26 01:12:07;;;;;;;8.55;6.75;;;20.70;99.90;;;;;;10117217;29;20239;-89
2023/08/26 01:17:12;;;;;;;8.07;7.38;;;20.60;99.90;;;;;;10137881;29;20243;-90
2023/08/26 01:22:18;;;;;;;8.25;7.45;;;20.60;99.90;;;;;;10125720;29;20256;-90
2023/08/26 01:27:21;;;;;;;8.48;7.57;;;20.90;99.90;;;;;;10129574;29;20255;-90
2023/08/26 01:32:47;;;;;;;8.50;7.70;;;20.90;99.90;;;;;;10113785;29;20300;-90
2023/08/26 01:37:51;;;;;;;10.75;8.32;;;21.00;99.90;;;;;;10141273;29;20271;-90
2023/08/26 01:42:58;;;;;;;10.05;8.43;;;21.20;99.90;;;;;;10131705;29;20689;-90
2023/08/26 01:48:00;;;;;;;9.27;7.43;;;21.00;99.90;;;;;;10133297;29;20291;-89
2023/08/26 01:53:04;;;;;;;11.18;8.25;;;;;;;;;;10129551;29;20231;-90
2023/08/26 01:58:06;;;;;;;8.90;7.82;;;21.10;99.90;;;;;;10164003;29;20235;-89
2023/08/26 02:03:09;;;;;;;8.73;7.82;;;20.80;99.90;;;;;;10168090;29;20243;-91
2023/08/26 02:08:11;;;;;;;11.07;7.75;;;20.60;99.90;;;;;;10136309;29;20263;-91
2023/08/26 02:13:14;;;;;;;15.50;9.40;;;20.50;99.90;;;;;;10150422;29;20295;-91
2023/08/26 02:18:18;;;;;;;9.82;8.35;;;20.40;99.90;;;;;;10146827;29;20298;-91
2023/08/26 02:23:20;;;;;;;13.38;8.75;;;20.10;99.90;;;;;;10149580;29;20232;-91
2023/08/26 02:28:23;;;;;;;8.88;7.88;;;19.90;99.90;;;;;;10151151;29;20286;-91
2023/08/26 02:33:26;;;;;;;7.78;6.82;;;19.90;99.90;;;;;;10146968;29;20300;-91
2023/08/26 02:38:31;;;;;;;15.60;9.10;;;19.80;99.90;;;;;;10145510;29;20326;-91
2023/08/26 02:43:35;;;;;;;9.80;8.80;;;19.80;99.90;;;;;;10134329;29;20298;-91
2023/08/26 02:48:38;;;;;;;8.10;7.32;;;19.80;99.90;;;;;;10112488;29;20287;-91
2023/08/26 02:53:40;;;;;;;9.60;7.05;;;19.80;99.90;;;;;;10135973;29;20258;-91
2023/08/26 02:58:43;;;;;;;6.90;6.25;;;19.70;99.90;;;;;;10148379;29;20232;-91
2023/08/26 03:03:45;;;;;;;7.93;7.13;;;19.70;99.90;;;;;;10147697;29;20271;-91
2023/08/26 03:08:48;;;;;;;10.10;7.97;;;19.70;99.90;;;;;;10133394;29;20315;-92
2023/08/26 03:13:51;;;;;;;8.23;7.47;;;19.60;99.90;;;;;;10122798;29;20651;-91
2023/08/26 03:18:54;;;;;;;9.45;8.45;;;19.60;99.90;;;;;;10131591;29;20304;-91
2023/08/26 03:23:56;;;;;;;11.27;8.25;;;19.50;99.90;;;;;;10128605;29;20267;-92
2023/08/26 03:28:59;;;;;;;9.15;8.18;;;19.30;99.90;;;;;;10154215;29;20349;-91
2023/08/26 03:34:01;;;;;;;9.57;7.70;;;19.40;99.90;;;;;;10156625;29;20239;-91
2023/08/26 03:39:04;;;;;;;10.45;8.65;;;19.30;99.90;;;;;;10147343;29;20663;-91
2023/08/26 03:44:07;;;;;;;10.57;8.85;;;19.30;99.90;;;;;;10148612;29;20608;-91
2023/08/26 03:49:10;;;;;;;6.95;6.35;;;19.20;99.90;;;;;;10151170;29;20315;-90
2023/08/26 03:54:16;;;;;;;10.25;8.77;;;19.30;99.90;;;;;;10163287;29;20227;-92
2023/08/26 03:59:19;;;;;;;9.60;8.10;;;19.40;99.90;;;;;;10155000;29;20227;-92
2023/08/26 04:04:21;;;;;;;10.60;8.35;;;19.30;99.90;;;;;;10153599;29;20302;-91
2023/08/26 04:09:24;;;;;;;12.15;6.55;;;19.10;99.90;;;;;;10155855;29;20326;-91
2023/08/26 04:14:27;;;;;;;13.63;8.55;;;19.20;99.90;;;;;;10155596;29;20263;-92
2023/08/26 04:19:30;;;;;;;8.43;7.63;;;19.10;99.90;;;;;;10156071;29;20239;-91
2023/08/26 04:24:34;;;;;;;9.45;7.75;;;19.20;99.90;;;;;;10140218;29;20310;-91
2023/08/26 04:29:37;;;;;;;15.20;8.93;;;19.30;99.90;;;;;;10155648;29;20263;-91
2023/08/26 04:34:39;;;;;;;11.52;8.98;;;19.20;99.90;;;;;;10172102;29;20322;-90
2023/08/26 04:39:42;;;;;;;14.93;8.30;;;19.20;99.90;;;;;;10158548;29;20643;-92
2023/08/26 04:44:45;;;;;;;11.10;8.90;;;19.40;99.90;;;;;;10145801;29;20239;-91
2023/08/26 04:49:48;;;;;;;9.30;6.95;;;19.40;99.90;;;;;;10156274;29;20300;-91
2023/08/26 04:54:51;;;;;;;9.82;6.70;;;19.70;99.90;;;;;;10132903;29;20803;-91
2023/08/26 04:59:53;;;;;;;14.05;8.75;;;20.00;99.90;;;;;;10157409;29;20290;-91
2023/08/26 05:04:57;;;;;;;7.88;7.07;;;20.20;99.90;;;;;;10116467;29;20248;-91
2023/08/26 05:10:00;;;;;;;5.55;5.15;;;20.30;99.90;;;;;;10117678;29;20283;-91
2023/08/26 05:15:04;;;;;;;6.07;5.35;;;20.50;99.90;;;;;;10170337;29;20279;-91
2023/08/26 05:20:07;;;;;;;5.53;4.93;;;20.70;99.90;;;;;;10151038;29;20239;-91
2023/08/26 05:25:10;;;;;;;6.13;5.60;;;20.70;99.90;;;;;;10115365;29;20327;-92
2023/08/26 05:30:12;;;;;;;10.05;6.70;;;20.70;99.90;;;;;;10140447;29;20276;-89
2023/08/26 05:35:22;;;;;;;7.20;5.10;;;20.70;99.90;;;;;;10129731;29;20263;-90
2023/08/26 05:40:28;;;;;;;6.13;5.63;;;20.70;99.90;;;;;;10133985;29;20298;-91
2023/08/26 05:45:32;;;;;;;7.43;6.07;;;20.80;99.90;;;;;;10114597;29;20636;-90
2023/08/26 05:50:36;;;;;;;6.43;5.82;;;21.00;99.90;;;;;;10129565;29;20272;-89
2023/08/26 05:55:43;;;;;;;7.10;6.38;;;21.20;99.90;;;;;;10113709;29;20582;-91
2023/08/26 06:00:47;;;;;;;8.85;5.82;;;21.30;99.90;;;;;;10116248;29;20275;-91
2023/08/26 06:05:50;;;;;;;5.45;4.95;;;21.50;99.90;;;;;;10127106;29;20974;-89
2023/08/26 06:10:55;;;;;;;5.55;4.55;;;21.60;99.90;;;;;;10117274;29;20312;-89
2023/08/26 06:15:58;;;;;;;6.32;5.45;;;21.90;99.90;;;;;;10118182;29;20689;-89
2023/08/26 06:21:02;;;;;;;5.38;3.92;;;22.30;99.90;;;;;;10121125;29;20259;-89
2023/08/26 06:26:05;;;;;;;8.43;4.63;;;22.50;99.90;;;;;;10139922;29;20303;-89
2023/08/26 06:31:08;;;;;;;4.85;4.45;;;22.70;99.90;;;;;;10151047;29;20267;-89
2023/08/26 06:36:17;;;;;;;4.38;3.97;;;;;;;;;;10129977;29;20254;-88
2023/08/26 06:41:20;;;;;;;3.47;3.20;;;23.10;99.90;;;;;;10128489;29;20243;-89
2023/08/26 06:46:22;;;;;;;4.47;3.63;;;23.20;99.90;;;;;;10118597;29;20240;-89
2023/08/26 06:51:25;;;;;;;4.22;3.92;;;23.30;99.90;;;;;;10112382;29;20272;-89
2023/08/26 06:56:27;;;;;;;4.28;3.88;;;23.50;99.90;;;;;;10113082;29;20806;-89
2023/08/26 07:01:31;;;;;;;5.70;4.47;;;23.50;99.90;;;;;;10150637;29;20937;-89
2023/08/26 07:06:35;;;;;;;4.88;3.33;;;23.50;99.90;;;;;;10128605;29;20251;-89
2023/08/26 07:11:41;;;;;;;3.53;3.20;;;23.50;99.90;;;;;;10128773;29;20267;-89
2023/08/26 07:16:43;;;;;;;4.82;4.43;;;23.40;99.90;;;;;;10111706;29;20644;-89
2023/08/26 07:21:46;;;;;;;4.88;4.47;;;23.70;99.90;;;;;;10142434;29;20298;-89
2023/08/26 07:26:48;;;;;;;4.65;4.25;;;23.90;99.90;;;;;;10149388;29;20271;-89
2023/08/26 07:31:51;;;;;;;5.22;4.82;;;24.40;98.80;;;;;;10146092;29;20251;-87
2023/08/26 07:36:53;;;;;;;6.18;4.47;;;24.70;98.90;;;;;;10139416;29;20291;-88
2023/08/26 07:41:56;;;;;;;5.32;4.30;;;24.90;97.50;;;;;;10162299;29;20286;-88
2023/08/26 07:46:58;;;;;;;5.55;5.13;;;25.10;97.10;;;;;;10164535;29;20243;-88
2023/08/26 07:52:01;;;;;;;5.70;4.90;;;25.20;96.60;;;;;;10140906;29;20280;-88
2023/08/26 07:57:04;;;;;;;5.80;5.30;;;25.10;96.50;;;;;;10135349;29;20260;-88
2023/08/26 08:02:06;;;;;;;5.68;4.30;;;25.00;96.70;;;;;;10150428;29;20280;-89
2023/08/26 08:07:09;;;;;;;4.65;4.20;;;25.10;95.90;;;;;;10138173;29;20243;-89
2023/08/26 08:12:14;;;;;;;4.60;4.30;;;25.10;96.40;;;;;;10172623;29;20329;-90
2023/08/26 08:17:17;;;;;;;4.85;4.45;;;25.20;96.50;;;;;;10151708;29;20290;-88
2023/08/26 08:22:38;;;;;;;7.65;5.57;;;25.10;95.90;;;;;;10138280;29;20772;-89
2023/08/26 08:27:41;;;;;;;4.63;4.22;;;25.00;96.30;;;;;;10133878;29;20244;-89
2023/08/26 08:32:44;;;;;;;6.28;5.00;;;24.90;96.90;;;;;;10138042;29;20314;-90
2023/08/26 08:37:46;;;;;;;9.80;5.28;;;24.90;97.00;;;;;;10160722;29;20263;-89
2023/08/26 08:42:51;;;;;;;9.05;5.68;;;25.00;98.00;;;;;;10160435;29;20231;-90
2023/08/26 08:47:55;;;;;;;6.15;5.50;;;25.00;98.40;;;;;;10150986;29;20639;-90
2023/08/26 08:52:58;;;;;;;7.78;6.10;;;25.00;97.40;;;;;;10140639;29;20836;-90
2023/08/26 08:58:02;;;;;;;6.47;5.88;;;25.20;97.20;;;;;;10150394;29;20290;-89
2023/08/26 09:03:08;;;;;;;7.80;5.03;;;25.30;97.10;;;;;;10170602;29;20652;-89
2023/08/26 09:08:12;;;;;;;8.25;5.32;;;25.40;96.70;;;;;;10131827;29;20247;-89
2023/08/26 09:13:14;;;;;;;8.45;5.60;;;25.40;95.80;;;;;;10132213;29;20307;-89
2023/08/26 09:18:19;;;;;;;15.90;6.50;;;25.40;96.10;;;;;;10156002;29;20951;-87
2023/08/26 09:23:22;;;;;;;8.00;6.18;;;25.40;96.10;;;;;;10148981;29;20302;-88
2023/08/26 09:28:26;;;;;;;7.55;6.15;;;25.40;95.60;;;;;;10143252;29;20240;-88
2023/08/26 09:33:28;;;;;;;7.30;6.45;;;25.50;95.50;;;;;;10141714;29;20694;-89
2023/08/26 09:38:47;;;;;;;7.20;6.50;;;25.50;95.40;;;;;;10114677;29;20276;-89
2023/08/26 09:43:50;;;;;;;10.00;6.25;;;25.50;95.40;;;;;;10144666;29;20239;-91
2023/08/26 09:48:57;;;;;;;6.65;6.00;;;25.40;95.80;;;;;;10153464;29;20286;-91
2023/08/26 09:54:00;;;;;;;7.78;6.90;;;25.50;95.50;;;;;;10152092;29;20310;-90
2023/08/26 09:59:04;;;;;;;7.65;6.03;;;25.40;95.90;;;;;;10165242;29;20627;-90
2023/08/26 10:04:09;;;;;;;10.65;6.00;;;25.60;95.70;;;;;;10167182;29;20274;-90
2023/08/26 10:09:27;;;;;;;6.57;5.97;;;25.80;94.90;;;;;;10116105;29;20299;-88
2023/08/26 10:14:32;;;;;;;9.38;6.78;;;26.00;94.30;;;;;;10113429;29;20252;-87
2023/08/26 10:19:36;;;;;;;8.13;6.18;;;26.20;93.80;;;;;;10130141;29;20295;-88
2023/08/26 10:24:39;;;;;;;8.63;6.45;;;26.30;93.40;;;;;;10134591;29;20295;-88
2023/08/26 10:29:42;;;;;;;7.28;5.53;;;26.50;93.40;;;;;;10145213;29;20695;-88
2023/08/26 10:35:00;;;;;;;6.78;6.05;;;26.60;92.60;;;;;;10156421;29;20334;-87
2023/08/26 10:40:12;;;;;;;7.55;5.85;;;26.70;92.10;;;;;;10168742;29;20234;-88
2023/08/26 10:45:15;;;;;;;6.53;5.82;;;26.70;91.90;;;;;;10156117;29;20611;-87
2023/08/26 10:50:28;;;;;;;8.00;6.63;;;26.70;91.50;;;;;;10167602;29;20322;-87
2023/08/26 10:55:33;;;;;;;7.50;6.68;;;26.80;91.40;;;;;;10148634;29;20236;-88
2023/08/26 11:00:37;;;;;;;6.63;6.03;;;26.90;91.10;;;;;;10163033;29;20288;-89
2023/08/26 11:05:42;;;;;;;6.88;6.18;;;26.80;90.90;;;;;;10158963;29;20238;-89
2023/08/26 11:10:45;;;;;;;6.18;5.57;;;26.80;90.40;;;;;;10166084;29;21098;-89
2023/08/26 11:15:50;;;;;;;7.03;6.00;;;26.80;90.70;;;;;;10153205;29;20235;-89
2023/08/26 11:20:52;;;;;;;6.50;5.30;;;26.70;90.40;;;;;;10138095;29;20247;-88
2023/08/26 11:25:55;;;;;;;7.13;6.20;;;26.70;90.60;;;;;;10171124;29;20642;-89
2023/08/26 11:30:57;;;;;;;6.32;5.18;;;26.60;90.50;;;;;;10155044;29;20808;-89
2023/08/26 11:36:00;;;;;;;7.03;5.43;;;26.60;90.30;;;;;;10172775;29;20330;-89
2023/08/26 11:41:10;;;;;;;5.22;4.80;;;26.50;90.10;;;;;;10170479;29;20291;-88
2023/08/26 11:46:13;;;;;;;5.63;5.13;;;26.40;90.40;;;;;;10155661;29;20259;-91
2023/08/26 11:51:16;;;;;;;7.85;5.57;;;26.30;91.40;;;;;;10138974;29;20710;-90
2023/08/26 11:56:19;;;;;;;5.18;4.78;;;26.20;91.50;;;;;;10142047;29;20227;-90
2023/08/26 12:01:25;;;;;;;6.50;5.20;;;26.30;91.90;;;;;;10156219;29;20690;-91
2023/08/26 12:06:28;;;;;;;9.60;4.55;;;26.20;91.30;;;;;;10171270;29;20239;-91
2023/08/26 12:11:38;;;;;;;7.13;4.70;;;26.10;89.50;;;;;;10135910;29;20259;-90
2023/08/26 12:16:40;;;;;;;5.47;4.97;;;26.10;90.40;;;;;;10152932;29;20211;-90
2023/08/26 12:21:47;;;;;;;6.38;5.72;;;26.20;91.60;;;;;;10152479;29;20302;-91
2023/08/26 12:26:50;;;;;;;5.53;4.45;;;26.30;90.40;;;;;;10168542;29;20239;-91
2023/08/26 12:31:52;;;;;;;6.10;4.85;;;26.30;87.00;;;;;;10166463;29;20306;-91
2023/08/26 12:36:56;;;;;;;5.00;4.50;;;26.40;90.00;;;;;;10107642;29;1245939;-90
2023/08/26 12:41:58;;;;;;;5.57;5.03;;;26.40;89.10;;;;;;10171952;29;20248;-92
2023/08/26 12:47:01;;;;;;;5.30;4.47;;;26.50;90.20;;;;;;10154859;29;20227;-91
2023/08/26 12:52:04;;;;;;;6.65;5.65;;;26.50;85.60;;;;;;10142069;29;20280;-88
2023/08/26 12:57:06;;;;;;;6.07;4.38;;;26.50;91.00;;;;;;10147289;29;20235;-91
2023/08/26 13:02:09;;;;;;;4.32;3.92;;;26.50;86.10;;;;;;10148866;29;20713;-86
2023/08/26 13:07:12;;;;;;;7.45;3.58;;;26.80;85.90;;;;;;10146183;29;20239;-91
2023/08/26 13:12:16;;;;;;;5.78;3.55;;;26.80;82.20;;;;;;10136589;29;20329;-90
2023/08/26 13:17:18;;;;;;;4.47;3.20;;;26.80;80.10;;;;;;10170695;29;20267;-91
2023/08/26 13:22:21;;;;;;;3.70;3.40;;;26.90;82.30;;;;;;10131542;29;20246;-91
2023/08/26 13:27:24;;;;;;;5.55;3.55;;;26.90;81.90;;;;;;10169899;29;20239;-90
2023/08/26 13:32:26;;;;;;;3.40;3.10;;;26.90;80.50;;;;;;10170194;29;20255;-90
2023/08/26 13:37:29;;;;;;;5.78;4.05;;;26.90;79.00;;;;;;10128106;29;20730;-90
2023/08/26 13:42:32;;;;;;;4.60;2.90;;;26.80;80.60;;;;;;10131251;29;20241;-90
2023/08/26 13:47:35;;;;;;;4.43;3.28;;;26.70;81.70;;;;;;10167183;29;20658;-90
2023/08/26 13:52:37;;;;;;;3.83;3.35;;;26.50;83.10;;;;;;10150933;29;20255;-91
2023/08/26 13:57:40;;;;;;;4.35;3.95;;;26.20;84.20;;;;;;10156956;29;20674;-90
2023/08/26 14:02:42;;;;;;;5.85;3.15;;;25.90;84.70;;;;;;10152102;29;20709;-90
2023/08/26 14:07:45;;;;;;;6.47;2.97;;;25.60;86.90;;;;;;10146161;29;20272;-90
2023/08/26 14:12:48;;;;;;;4.78;3.42;;;25.40;89.80;;;;;;10151716;29;20270;-90
2023/08/26 14:17:51;;;;;;;4.35;3.60;;;25.40;90.90;;;;;;10135562;29;20275;-91
2023/08/26 14:22:54;;;;;;;6.65;4.13;;;25.40;91.20;;;;;;10147302;29;20239;-91
2023/08/26 14:27:56;;;;;;;9.43;4.60;;;25.30;91.90;;;;;;10124174;29;20288;-91
2023/08/26 14:32:59;;;;;;;5.50;4.45;;;24.80;96.50;;;;;;10120502;29;20267;-91
2023/08/26 14:38:03;;;;;;;9.35;4.93;;;24.70;95.60;;;;;;10165875;29;20274;-91
2023/08/26 14:43:05;;;;;;;7.38;3.85;;;24.70;99.70;;;;;;10154040;29;21214;-86
2023/08/26 14:48:08;;;;;;;8.93;4.85;;;25.00;99.90;;;;;;10144822;29;20311;-86
2023/08/26 14:53:12;;;;;;;5.28;4.20;;;25.20;99.90;;;;;;10111649;29;20675;-92
2023/08/26 14:58:15;;;;;;;6.97;4.72;;;25.00;99.90;;;;;;10133108;29;20279;-90
2023/08/26 15:03:17;;;;;;;4.63;4.13;;;24.80;99.90;;;;;;10136886;29;20232;-91
2023/08/26 15:08:20;;;;;;;6.93;4.00;;;24.70;99.90;;;;;;10130128;29;20243;-91
2023/08/26 15:13:23;;;;;;;5.20;3.53;;;24.60;99.90;;;;;;10132811;29;20721;-91
2023/08/26 15:18:36;;;;;;;4.00;2.70;;;24.50;99.90;;;;;;10131052;29;20232;-91
2023/08/26 15:23:41;;;;;;;3.83;2.00;;;24.30;99.90;;;;;;10126621;29;20239;-92
2023/08/26 15:28:45;;;;;;;7.53;1.98;;;24.20;99.90;;;;;;10142381;29;20230;-91
2023/08/26 15:33:48;;;;;;;1.98;1.48;;;24.10;99.90;;;;;;10141109;29;20326;-91
2023/08/26 15:38:50;;;;;;;4.13;2.05;;;23.90;99.90;;;;;;10087665;29;20260;-90
2023/08/26 15:43:53;;;;;;;5.82;2.30;;;23.70;99.90;;;;;;10086832;29;20645;-90
2023/08/26 15:48:56;;;;;;;3.45;2.15;;;23.60;99.90;;;;;;10095846;29;20665;-92
2023/08/26 15:53:58;;;;;;;3.00;2.70;;;23.50;99.90;;;;;;10126259;29;20284;-92
2023/08/26 15:59:01;;;;;;;2.75;2.17;;;23.60;99.90;;;;;;10099054;29;20261;-92
2023/08/26 16:04:04;;;;;;;2.47;2.28;;;23.50;99.90;;;;;;10091711;29;20244;-91
2023/08/26 16:09:09;;;;;;;3.65;2.25;;;23.50;99.90;;;;;;10111074;29;20757;-92
2023/08/26 16:14:12;;;;;;;3.60;2.45;;;23.50;99.90;;;;;;10111563;29;20960;-93
2023/08/26 16:19:15;;;;;;;3.40;2.50;;;23.40;99.90;;;;;;10118964;29;20236;-92
2023/08/26 16:24:17;;;;;;;4.20;2.80;;;23.40;99.90;;;;;;10131099;29;20642;-91
2023/08/26 16:29:20;;;;;;;2.15;1.95;;;23.30;99.90;;;;;;10111252;29;20760;-93
2023/08/26 16:34:23;;;;;;;4.75;2.47;;;23.30;99.90;;;;;;10121914;29;20326;-92
2023/08/26 16:39:26;;;;;;;2.55;2.25;;;23.40;99.90;;;;;;10158812;29;20686;-93
2023/08/26 16:44:29;;;;;;;2.65;2.40;;;23.20;99.90;;;;;;10126294;29;20251;-92
2023/08/26 16:49:32;;;;;;;5.55;2.15;;;23.00;99.90;;;;;;10132625;29;20721;-92
2023/08/26 16:54:35;;;;;;;4.00;2.83;;;22.70;99.90;;;;;;10160221;29;20354;-92
2023/08/26 16:59:37;;;;;;;4.82;3.72;;;22.60;99.90;;;;;;10130014;29;20232;-93
2023/08/26 17:04:40;;;;;;;5.90;3.38;;;22.50;99.90;;;;;;10123123;29;20255;-92
2023/08/26 17:09:43;;;;;;;6.88;3.20;;;22.40;99.90;;;;;;10149486;29;20235;-92
2023/08/26 17:14:47;;;;;;;4.60;2.42;;;22.50;99.90;;;;;;10152000;29;20256;-94
2023/08/26 17:19:49;;;;;;;3.65;2.42;;;22.60;99.90;;;;;;10150147;29;20264;-92
2023/08/26 17:24:52;;;;;;;5.13;3.03;;;22.40;99.90;;;;;;10148872;29;20292;-94
2023/08/26 17:29:55;;;;;;;4.70;3.53;;;22.10;99.90;;;;;;10135800;29;20647;-93
2023/08/26 17:34:57;;;;;;;3.80;3.40;;;21.90;99.90;;;;;;10165466;29;20259;-91
2023/08/26 17:40:00;;;;;;;5.88;4.85;;;21.80;99.90;;;;;;10130675;29;20295;-93
2023/08/26 17:45:03;;;;;;;6.22;4.50;;;21.60;99.90;;;;;;10127144;29;20278;-93
2023/08/26 17:50:07;;;;;;;4.50;4.10;;;21.50;99.90;;;;;;10144675;29;20248;-93
2023/08/26 17:55:10;;;;;;;4.22;3.72;;;21.40;99.90;;;;;;10161307;29;20282;-94
2023/08/26 18:00:13;;;;;;;5.63;4.32;;;21.30;99.90;;;;;;10157481;29;20642;-89
2023/08/26 18:05:16;;;;;;;4.93;3.22;;;21.20;99.90;;;;;;10124860;29;20244;-92
2023/08/26 18:10:19;;;;;;;3.72;3.33;;;21.20;99.90;;;;;;10143089;29;20353;-92
2023/08/26 18:15:22;;;;;;;5.10;4.03;;;21.20;99.90;;;;;;10168919;29;20682;-92
2023/08/26 18:20:24;;;;;;;6.75;4.50;;;21.10;99.90;;;;;;10148073;29;20240;-93
2023/08/26 18:25:27;;;;;;;7.60;4.25;;;21.10;99.90;;;;;;10123295;29;20303;-88
2023/08/26 18:30:30;;;;;;;5.90;4.60;;;21.10;99.90;;;;;;10124226;29;20239;-89
2023/08/26 18:35:32;;;;;;;7.45;5.38;;;21.00;99.90;;;;;;10166904;29;20318;-89
2023/08/26 18:40:35;;;;;;;7.05;4.65;;;20.80;99.90;;;;;;10160243;29;20620;-87
2023/08/26 18:45:38;;;;;;;8.45;4.30;;;20.70;99.90;;;;;;10134176;29;20208;-88
2023/08/26 18:50:41;;;;;;;9.30;6.15;;;20.60;99.90;;;;;;10163256;29;20696;-88
2023/08/26 18:55:49;;;;;;;7.75;6.18;;;20.60;99.90;;;;;;10135493;29;20395;-88
2023/08/26 19:00:54;;;;;;;7.50;5.35;;;20.50;99.90;;;;;;10127479;29;20235;-87
2023/08/26 19:05:57;;;;;;;9.10;6.68;;;20.50;99.90;;;;;;10150049;29;20280;-88
2023/08/26 19:10:59;;;;;;;7.50;5.82;;;20.40;99.90;;;;;;10136019;29;20709;-89
2023/08/26 19:16:02;;;;;;;7.35;6.13;;;20.30;99.90;;;;;;10149376;29;20243;-88
2023/08/26 19:21:04;;;;;;;9.15;6.70;;;20.20;99.90;;;;;;10165762;29;20251;-88
2023/08/26 19:26:07;;;;;;;8.90;6.85;;;20.10;99.90;;;;;;10150769;29;20234;-88
2023/08/26 19:31:10;;;;;;;9.00;7.25;;;20.10;99.90;;;;;;10142428;29;20287;-87
2023/08/26 19:36:13;;;;;;;11.25;7.13;;;20.00;99.90;;;;;;10152693;29;20255;-88
2023/08/26 19:41:18;;;;;;;11.60;7.13;;;20.10;99.90;;;;;;10142526;29;20228;-89
2023/08/26 19:46:20;;;;;;;8.98;7.47;;;20.10;99.90;;;;;;10165410;29;20684;-88
2023/08/26 19:51:26;;;;;;;7.97;7.13;;;20.10;99.90;;;;;;10131587;29;20283;-88
2023/08/26 19:56:28;;;;;;;10.63;7.40;;;20.10;99.90;;;;;;10150747;29;20609;-90
2023/08/26 20:01:34;;;;;;;8.23;7.43;;;20.10;99.90;;;;;;10137479;29;20708;-90
2023/08/26 20:06:36;;;;;;;12.20;7.90;;;20.00;99.90;;;;;;10151307;29;20306;-90
2023/08/26 20:11:39;;;;;;;9.50;7.60;;;20.00;99.90;;;;;;10133202;29;20263;-89
2023/08/26 20:16:41;;;;;;;7.70;6.72;;;19.90;99.90;;;;;;10133723;29;20683;-89
2023/08/26 20:21:44;;;;;;;9.77;7.38;;;19.80;99.90;;;;;;10128160;29;20688;-89
2023/08/26 20:26:52;;;;;;;7.38;6.40;;;19.80;99.90;;;;;;10164259;29;20243;-90
2023/08/26 20:31:54;;;;;;;8.30;6.22;;;19.70;99.90;;;;;;10139706;29;20264;-90
2023/08/26 20:36:58;;;;;;;14.10;7.82;;;19.70;99.90;;;;;;10139032;29;20356;-90
2023/08/26 20:42:00;;;;;;;6.95;6.18;;;19.80;99.90;;;;;;10146203;29;20645;-89
2023/08/26 20:47:06;;;;;;;7.80;7.00;;;19.80;99.90;;;;;;10164603;29;20835;-90
2023/08/26 20:52:09;;;;;;;13.75;8.48;;;19.80;99.90;;;;;;10148063;29;20304;-90
2023/08/26 20:57:11;;;;;;;10.05;8.45;;;19.70;99.90;;;;;;10163524;29;20236;-91
2023/08/26 21:02:14;;;;;;;10.25;8.60;;;19.60;99.90;;;;;;10135438;29;20932;-91
2023/08/26 21:07:17;;;;;;;11.18;9.15;;;19.60;99.90;;;;;;10134707;29;20251;-89
2023/08/26 21:12:19;;;;;;;10.18;9.00;;;19.60;99.90;;;;;;10155596;29;20259;-90
2023/08/26 21:17:22;;;;;;;15.60;9.63;;;19.60;99.90;;;;;;10170982;29;20243;-89
2023/08/26 21:22:24;;;;;;;10.73;9.63;;;19.60;99.90;;;;;;10136009;29;20279;-89
2023/08/26 21:27:27;;;;;;;10.55;8.52;;;19.70;99.90;;;;;;10169360;29;20290;-88
2023/08/26 21:32:34;;;;;;;14.75;8.70;;;19.60;99.90;;;;;;10168352;29;20445;-89
2023/08/26 21:37:37;;;;;;;10.15;8.30;;;19.60;99.90;;;;;;10146962;29;20650;-89
2023/08/26 21:42:40;;;;;;;9.82;8.60;;;19.60;99.90;;;;;;10154144;29;20247;-89
2023/08/26 21:47:43;;;;;;;11.80;8.32;;;19.60;99.90;;;;;;10136551;29;20248;-89
2023/08/26 21:52:45;;;;;;;9.45;8.07;;;19.60;99.90;;;;;;10144546;29;20693;-89
2023/08/26 21:58:07;;;;;;;11.18;7.78;;;19.50;99.90;;;;;;10133882;29;20244;-89
2023/08/26 22:03:10;;;;;;;13.00;7.80;;;19.50;99.90;;;;;;10129760;29;20295;-89
2023/08/26 22:08:12;;;;;;;12.68;6.97;;;19.40;99.90;;;;;;10169366;29;20243;-89
2023/08/26 22:13:16;;;;;;;7.95;6.65;;;19.40;99.90;;;;;;10158366;29;20255;-89
2023/08/26 22:18:19;;;;;;;10.55;6.10;;;19.40;99.90;;;;;;10135311;29;20243;-89
2023/08/26 22:23:22;;;;;;;10.07;6.65;;;19.20;99.90;;;;;;10132863;29;20232;-88
2023/08/26 22:28:24;;;;;;;9.93;5.43;;;19.20;99.90;;;;;;10169456;29;20239;-89
2023/08/26 22:33:27;;;;;;;8.48;5.50;;;19.10;99.90;;;;;;10168595;29;20695;-89
2023/08/26 22:38:30;;;;;;;8.43;5.80;;;19.20;99.90;;;;;;10146154;29;20314;-89
2023/08/26 22:43:32;;;;;;;11.90;6.57;;;19.30;99.90;;;;;;10154807;29;20554;-88
2023/08/26 22:48:35;;;;;;;5.25;4.47;;;19.40;99.90;;;;;;10155345;29;20246;-90
2023/08/26 22:53:37;;;;;;;5.95;4.93;;;19.50;99.90;;;;;;10136179;29;20236;-90
2023/08/26 22:58:41;;;;;;;5.35;4.65;;;19.80;99.90;;;;;;10134966;29;20323;-90
2023/08/26 23:03:43;;;;;;;6.75;4.95;;;20.00;99.90;;;;;;10139970;29;20264;-89
2023/08/26 23:08:46;;;;;;;4.22;3.83;;;20.10;99.90;;;;;;10163244;29;20240;-90
2023/08/26 23:13:48;;;;;;;6.07;4.47;;;20.20;99.90;;;;;;10191051;29;20227;-89
2023/08/26 23:18:51;;;;;;;4.45;4.05;;;20.30;99.90;;;;;;10202121;29;20204;-89
2023/08/26 23:23:54;;;;;;;4.90;4.15;;;20.50;99.90;;;;;;10196717;29;20212;-89
2023/08/26 23:28:56;;;;;;;8.55;4.22;;;20.50;99.90;;;;;;10193134;29;20187;-89
2023/08/26 23:33:59;;;;;;;4.93;4.40;;;20.60;99.90;;;;;;10226865;29;20250;-89
2023/08/26 23:39:14;;;;;;;8.43;4.60;;;20.80;99.90;;;;;;10211198;29;20219;-90
2023/08/26 23:44:17;;;;;;;5.57;4.97;;;20.80;99.90;;;;;;10226901;29;20398;-90
2023/08/26 23:49:19;;;;;;;6.00;4.72;;;20.70;99.90;;;;;;10205313;29;20235;-89
2023/08/26 23:54:23;;;;;;;5.18;4.20;;;20.60;99.90;;;;;;10211037;29;20260;-90
2023/08/26 23:59:25;;;;;;;7.10;4.47;;;20.50;99.90;;;;;;10211402;29;20196;-89
